sensor_id;sensor_type;location;lat;lon;timestamp;temperature;humidity
10883;DHT22;5494;51.796;10.952;2022-12-18T00:00:08;-3.70;99.90
10883;DHT22;5494;51.796;10.952;2022-12-18T00:02:41;-3.80;99.90
10883;DHT22;5494;51.796;10.952;2022-12-18T00:05:10;-3.80;99.90
10883;DHT22;5494;51.796;10.952;2022-12-18T00:07:38;-3.90;99.90
10883;DHT22;5494;51.796;10.952;2022-12-18T00:10:07;-3.90;99.90
10883;DHT22;5494;51.796;10.952;2022-12-18T00:12:36;-3.90;99.90
10883;DHT22;5494;51.796;10.952;2022-12-18T00:15:05;-3.90;99.90
10883;DHT22;5494;51.796;10.952;2022-12-18T00:17:33;-3.90;99.90
10883;DHT22;5494;51.796;10.952;2022-12-18T00:20:03;-4.00;99.90
10883;DHT22;5494;51.796;10.952;2022-12-18T00:22:32;-4.10;99.90
10883;DHT22;5494;51.796;10.952;2022-12-18T00:25:00;-4.20;99.90
10883;DHT22;5494;51.796;10.952;2022-12-18T00:27:29;-4.20;99.90
10883;DHT22;5494;51.796;10.952;2022-12-18T00:29:57;-4.20;99.90
10883;DHT22;5494;51.796;10.952;2022-12-18T00:32:25;-4.10;99.90
10883;DHT22;5494;51.796;10.952;2022-12-18T00:34:54;-4.10;99.90
10883;DHT22;5494;51.796;10.952;2022-12-18T00:37:24;-4.20;99.90
10883;DHT22;5494;51.796;10.952;2022-12-18T00:39:53;-4.10;99.90
10883;DHT22;5494;51.796;10.952;2022-12-18T00:42:21;-4.10;99.90
10883;DHT22;5494;51.796;10.952;2022-12-18T00:45:07;-4.10;99.90
10883;DHT22;5494;51.796;10.952;2022-12-18T00:47:39;-4.10;99.90
10883;DHT22;5494;51.796;10.952;2022-12-18T00:50:08;-4.20;99.90
10883;DHT22;5494;51.796;10.952;2022-12-18T00:52:38;-4.20;99.90
10883;DHT22;5494;51.796;10.952;2022-12-18T00:55:08;-4.20;99.90
10883;DHT22;5494;51.796;10.952;2022-12-18T00:57:36;-4.10;99.90
10883;DHT22;5494;51.796;10.952;2022-12-18T01:00:09;-4.10;99.90
10883;DHT22;5494;51.796;10.952;2022-12-18T01:02:42;-4.20;99.90
10883;DHT22;5494;51.796;10.952;2022-12-18T01:05:15;-4.20;99.90
10883;DHT22;5494;51.796;10.952;2022-12-18T01:07:45;-4.30;99.90
10883;DHT22;5494;51.796;10.952;2022-12-18T01:10:13;-4.30;99.90
10883;DHT22;5494;51.796;10.952;2022-12-18T01:12:41;-4.30;99.90
10883;DHT22;5494;51.796;10.952;2022-12-18T01:15:12;-4.30;99.90
10883;DHT22;5494;51.796;10.952;2022-12-18T01:17:42;-4.30;99.90
10883;DHT22;5494;51.796;10.952;2022-12-18T01:20:12;-4.30;99.90
10883;DHT22;5494;51.796;10.952;2022-12-18T01:22:41;-4.30;99.90
10883;DHT22;5494;51.796;10.952;2022-12-18T01:25:11;-4.30;99.90
10883;DHT22;5494;51.796;10.952;2022-12-18T01:27:39;-4.20;99.90
10883;DHT22;5494;51.796;10.952;2022-12-18T01:30:08;-4.20;99.90
10883;DHT22;5494;51.796;10.952;2022-12-18T01:32:37;-4.20;99.90
10883;DHT22;5494;51.796;10.952;2022-12-18T01:35:06;-4.20;99.90
10883;DHT22;5494;51.796;10.952;2022-12-18T01:37:35;-4.20;99.90
10883;DHT22;5494;51.796;10.952;2022-12-18T01:40:04;-4.30;99.90
10883;DHT22;5494;51.796;10.952;2022-12-18T01:42:34;-4.30;99.90
10883;DHT22;5494;51.796;10.952;2022-12-18T01:45:21;-4.30;99.90
10883;DHT22;5494;51.796;10.952;2022-12-18T01:47:53;-4.40;99.90
10883;DHT22;5494;51.796;10.952;2022-12-18T01:50:25;-4.30;99.90
10883;DHT22;5494;51.796;10.952;2022-12-18T01:53:00;-4.40;99.90
10883;DHT22;5494;51.796;10.952;2022-12-18T01:55:36;-4.20;99.90
10883;DHT22;5494;51.796;10.952;2022-12-18T01:58:11;-4.50;99.90
10883;DHT22;5494;51.796;10.952;2022-12-18T02:00:41;-4.40;99.90
10883;DHT22;5494;51.796;10.952;2022-12-18T02:03:11;-4.50;99.90
10883;DHT22;5494;51.796;10.952;2022-12-18T02:05:44;-4.40;99.90
10883;DHT22;5494;51.796;10.952;2022-12-18T02:08:19;-4.50;99.90
10883;DHT22;5494;51.796;10.952;2022-12-18T02:10:59;-4.50;99.90
10883;DHT22;5494;51.796;10.952;2022-12-18T02:13:38;-4.40;99.90
10883;DHT22;5494;51.796;10.952;2022-12-18T02:16:25;-4.50;99.90
10883;DHT22;5494;51.796;10.952;2022-12-18T02:19:08;-4.60;99.90
10883;DHT22;5494;51.796;10.952;2022-12-18T02:21:49;-4.60;99.90
10883;DHT22;5494;51.796;10.952;2022-12-18T02:24:35;-4.70;99.90
10883;DHT22;5494;51.796;10.952;2022-12-18T02:27:13;-4.70;99.90
10883;DHT22;5494;51.796;10.952;2022-12-18T02:29:48;-4.60;99.90
10883;DHT22;5494;51.796;10.952;2022-12-18T02:32:27;-4.60;99.90
10883;DHT22;5494;51.796;10.952;2022-12-18T02:34:59;-4.60;99.90
10883;DHT22;5494;51.796;10.952;2022-12-18T02:37:34;-4.60;99.90
10883;DHT22;5494;51.796;10.952;2022-12-18T02:40:06;-4.60;99.90
10883;DHT22;5494;51.796;10.952;2022-12-18T02:42:38;-4.60;99.90
10883;DHT22;5494;51.796;10.952;2022-12-18T02:45:09;-4.50;99.90
10883;DHT22;5494;51.796;10.952;2022-12-18T02:47:39;-4.50;99.90
10883;DHT22;5494;51.796;10.952;2022-12-18T02:50:19;-4.50;99.90
10883;DHT22;5494;51.796;10.952;2022-12-18T02:53:06;-4.40;99.90
10883;DHT22;5494;51.796;10.952;2022-12-18T02:55:53;-4.50;99.90
10883;DHT22;5494;51.796;10.952;2022-12-18T02:58:40;-4.50;99.90
10883;DHT22;5494;51.796;10.952;2022-12-18T03:01:30;-4.40;99.90
10883;DHT22;5494;51.796;10.952;2022-12-18T03:04:07;-4.50;99.90
10883;DHT22;5494;51.796;10.952;2022-12-18T03:06:46;-4.50;99.90
10883;DHT22;5494;51.796;10.952;2022-12-18T03:09:21;-4.50;99.90
10883;DHT22;5494;51.796;10.952;2022-12-18T03:12:00;-4.50;99.90
10883;DHT22;5494;51.796;10.952;2022-12-18T03:14:53;-4.40;99.90
10883;DHT22;5494;51.796;10.952;2022-12-18T03:17:27;-4.40;99.90
10883;DHT22;5494;51.796;10.952;2022-12-18T03:20:00;-4.40;99.90
10883;DHT22;5494;51.796;10.952;2022-12-18T03:22:33;-4.50;99.90
10883;DHT22;5494;51.796;10.952;2022-12-18T03:25:08;-4.40;99.90
10883;DHT22;5494;51.796;10.952;2022-12-18T03:27:42;-4.40;99.90
10883;DHT22;5494;51.796;10.952;2022-12-18T03:30:18;-4.50;99.90
10883;DHT22;5494;51.796;10.952;2022-12-18T03:32:48;-4.50;99.90
10883;DHT22;5494;51.796;10.952;2022-12-18T03:35:29;-4.40;99.90
10883;DHT22;5494;51.796;10.952;2022-12-18T03:38:04;-4.50;99.90
10883;DHT22;5494;51.796;10.952;2022-12-18T03:40:43;-4.50;99.90
10883;DHT22;5494;51.796;10.952;2022-12-18T03:43:23;-4.50;99.90
10883;DHT22;5494;51.796;10.952;2022-12-18T03:46:07;-4.40;99.90
10883;DHT22;5494;51.796;10.952;2022-12-18T03:48:59;-4.40;99.90
10883;DHT22;5494;51.796;10.952;2022-12-18T03:51:38;-4.50;99.90
10883;DHT22;5494;51.796;10.952;2022-12-18T03:54:11;-4.50;99.90
10883;DHT22;5494;51.796;10.952;2022-12-18T03:56:53;-4.60;99.90
10883;DHT22;5494;51.796;10.952;2022-12-18T03:59:29;-4.50;99.90
10883;DHT22;5494;51.796;10.952;2022-12-18T04:02:01;-4.60;99.90
10883;DHT22;5494;51.796;10.952;2022-12-18T04:04:35;-4.60;99.90
10883;DHT22;5494;51.796;10.952;2022-12-18T04:07:06;-4.70;99.90
10883;DHT22;5494;51.796;10.952;2022-12-18T04:09:39;-4.70;99.90
10883;DHT22;5494;51.796;10.952;2022-12-18T04:12:09;-4.80;99.90
10883;DHT22;5494;51.796;10.952;2022-12-18T04:14:37;-4.80;99.90
10883;DHT22;5494;51.796;10.952;2022-12-18T04:17:09;-4.90;99.90
10883;DHT22;5494;51.796;10.952;2022-12-18T04:19:38;-5.00;99.90
10883;DHT22;5494;51.796;10.952;2022-12-18T04:22:08;-5.00;99.90
10883;DHT22;5494;51.796;10.952;2022-12-18T04:24:42;-5.10;99.90
10883;DHT22;5494;51.796;10.952;2022-12-18T04:27:18;-5.00;99.90
10883;DHT22;5494;51.796;10.952;2022-12-18T04:29:49;-5.10;99.90
10883;DHT22;5494;51.796;10.952;2022-12-18T04:32:19;-5.10;99.90
10883;DHT22;5494;51.796;10.952;2022-12-18T04:34:48;-5.10;99.90
10883;DHT22;5494;51.796;10.952;2022-12-18T04:37:16;-5.10;99.90
10883;DHT22;5494;51.796;10.952;2022-12-18T04:39:44;-5.10;99.90
10883;DHT22;5494;51.796;10.952;2022-12-18T04:42:20;-5.00;99.90
10883;DHT22;5494;51.796;10.952;2022-12-18T04:44:48;-5.20;99.90
10883;DHT22;5494;51.796;10.952;2022-12-18T04:47:16;-5.20;99.90
10883;DHT22;5494;51.796;10.952;2022-12-18T04:49:46;-5.10;99.90
10883;DHT22;5494;51.796;10.952;2022-12-18T04:52:14;-5.10;99.90
10883;DHT22;5494;51.796;10.952;2022-12-18T04:54:42;-5.10;99.90
10883;DHT22;5494;51.796;10.952;2022-12-18T04:57:10;-5.20;99.90
10883;DHT22;5494;51.796;10.952;2022-12-18T04:59:39;-5.20;99.90
10883;DHT22;5494;51.796;10.952;2022-12-18T05:02:07;-5.20;99.90
10883;DHT22;5494;51.796;10.952;2022-12-18T05:04:36;-5.10;99.90
10883;DHT22;5494;51.796;10.952;2022-12-18T05:07:05;-5.00;99.90
10883;DHT22;5494;51.796;10.952;2022-12-18T05:09:33;-5.10;99.90
10883;DHT22;5494;51.796;10.952;2022-12-18T05:12:02;-5.20;99.90
10883;DHT22;5494;51.796;10.952;2022-12-18T05:14:30;-5.20;99.90
10883;DHT22;5494;51.796;10.952;2022-12-18T05:16:58;-5.10;99.90
10883;DHT22;5494;51.796;10.952;2022-12-18T05:19:27;-5.20;99.90
10883;DHT22;5494;51.796;10.952;2022-12-18T05:21:55;-5.10;99.90
10883;DHT22;5494;51.796;10.952;2022-12-18T05:24:25;-5.20;99.90
10883;DHT22;5494;51.796;10.952;2022-12-18T05:26:54;-5.20;99.90
10883;DHT22;5494;51.796;10.952;2022-12-18T05:29:22;-5.20;99.90
10883;DHT22;5494;51.796;10.952;2022-12-18T05:31:50;-5.20;99.90
10883;DHT22;5494;51.796;10.952;2022-12-18T05:34:18;-5.20;99.90
10883;DHT22;5494;51.796;10.952;2022-12-18T05:36:46;-5.20;99.90
10883;DHT22;5494;51.796;10.952;2022-12-18T05:39:14;-5.10;99.90
10883;DHT22;5494;51.796;10.952;2022-12-18T05:41:43;-5.20;99.90
10883;DHT22;5494;51.796;10.952;2022-12-18T05:44:12;-5.30;99.90
10883;DHT22;5494;51.796;10.952;2022-12-18T05:46:40;-5.30;99.90
10883;DHT22;5494;51.796;10.952;2022-12-18T05:49:09;-5.20;99.90
10883;DHT22;5494;51.796;10.952;2022-12-18T05:51:37;-5.20;99.90
10883;DHT22;5494;51.796;10.952;2022-12-18T05:54:07;-5.20;99.90
10883;DHT22;5494;51.796;10.952;2022-12-18T05:56:36;-5.20;99.90
10883;DHT22;5494;51.796;10.952;2022-12-18T05:59:05;-5.20;99.90
10883;DHT22;5494;51.796;10.952;2022-12-18T06:01:33;-5.10;99.90
10883;DHT22;5494;51.796;10.952;2022-12-18T06:04:01;-5.10;99.90
10883;DHT22;5494;51.796;10.952;2022-12-18T06:06:31;-5.00;99.90
10883;DHT22;5494;51.796;10.952;2022-12-18T06:08:59;-5.10;99.90
10883;DHT22;5494;51.796;10.952;2022-12-18T06:11:27;-5.00;99.90
10883;DHT22;5494;51.796;10.952;2022-12-18T06:13:56;-5.20;99.90
10883;DHT22;5494;51.796;10.952;2022-12-18T06:16:28;-5.20;99.90
10883;DHT22;5494;51.796;10.952;2022-12-18T06:18:57;-5.20;99.90
10883;DHT22;5494;51.796;10.952;2022-12-18T06:21:26;-5.30;99.90
10883;DHT22;5494;51.796;10.952;2022-12-18T06:23:58;-5.30;99.90
10883;DHT22;5494;51.796;10.952;2022-12-18T06:26:27;-5.20;99.90
10883;DHT22;5494;51.796;10.952;2022-12-18T06:28:55;-5.20;99.90
10883;DHT22;5494;51.796;10.952;2022-12-18T06:31:24;-5.20;99.90
10883;DHT22;5494;51.796;10.952;2022-12-18T06:33:54;-5.00;99.90
10883;DHT22;5494;51.796;10.952;2022-12-18T06:36:22;-4.90;99.90
10883;DHT22;5494;51.796;10.952;2022-12-18T06:38:50;-4.90;99.90
10883;DHT22;5494;51.796;10.952;2022-12-18T06:41:19;-4.90;99.90
10883;DHT22;5494;51.796;10.952;2022-12-18T06:43:49;-4.90;99.90
10883;DHT22;5494;51.796;10.952;2022-12-18T06:46:21;-4.80;99.90
10883;DHT22;5494;51.796;10.952;2022-12-18T06:48:50;-4.90;99.90
10883;DHT22;5494;51.796;10.952;2022-12-18T06:51:24;-4.80;99.90
10883;DHT22;5494;51.796;10.952;2022-12-18T06:53:53;-4.60;99.90
10883;DHT22;5494;51.796;10.952;2022-12-18T06:56:21;-4.60;99.90
10883;DHT22;5494;51.796;10.952;2022-12-18T06:58:49;-4.70;99.90
10883;DHT22;5494;51.796;10.952;2022-12-18T07:01:17;-4.60;99.90
10883;DHT22;5494;51.796;10.952;2022-12-18T07:03:46;-4.50;99.90
10883;DHT22;5494;51.796;10.952;2022-12-18T07:06:16;-4.50;99.90
10883;DHT22;5494;51.796;10.952;2022-12-18T07:08:49;-4.60;99.90
10883;DHT22;5494;51.796;10.952;2022-12-18T07:11:18;-4.50;99.90
10883;DHT22;5494;51.796;10.952;2022-12-18T07:13:47;-4.50;99.90
10883;DHT22;5494;51.796;10.952;2022-12-18T07:16:16;-4.40;99.90
10883;DHT22;5494;51.796;10.952;2022-12-18T07:18:51;-4.50;99.90
10883;DHT22;5494;51.796;10.952;2022-12-18T07:21:20;-4.60;99.90
10883;DHT22;5494;51.796;10.952;2022-12-18T07:23:50;-4.60;99.90
10883;DHT22;5494;51.796;10.952;2022-12-18T07:26:20;-4.70;99.90
10883;DHT22;5494;51.796;10.952;2022-12-18T07:28:49;-4.70;99.90
10883;DHT22;5494;51.796;10.952;2022-12-18T07:31:20;-4.70;99.90
10883;DHT22;5494;51.796;10.952;2022-12-18T07:33:50;-4.70;99.90
10883;DHT22;5494;51.796;10.952;2022-12-18T07:36:19;-4.70;99.90
10883;DHT22;5494;51.796;10.952;2022-12-18T07:38:51;-4.70;99.90
10883;DHT22;5494;51.796;10.952;2022-12-18T07:41:20;-4.70;99.90
10883;DHT22;5494;51.796;10.952;2022-12-18T07:43:48;-4.70;99.90
10883;DHT22;5494;51.796;10.952;2022-12-18T07:46:16;-4.70;99.90
10883;DHT22;5494;51.796;10.952;2022-12-18T07:48:46;-4.70;99.90
10883;DHT22;5494;51.796;10.952;2022-12-18T07:51:16;-4.70;99.90
10883;DHT22;5494;51.796;10.952;2022-12-18T07:53:45;-4.70;99.90
10883;DHT22;5494;51.796;10.952;2022-12-18T07:56:19;-4.70;99.90
10883;DHT22;5494;51.796;10.952;2022-12-18T07:58:53;-4.60;99.90
10883;DHT22;5494;51.796;10.952;2022-12-18T08:01:22;-4.60;99.90
10883;DHT22;5494;51.796;10.952;2022-12-18T08:03:51;-4.50;99.90
10883;DHT22;5494;51.796;10.952;2022-12-18T08:06:19;-4.40;99.90
10883;DHT22;5494;51.796;10.952;2022-12-18T08:08:51;-4.40;99.90
10883;DHT22;5494;51.796;10.952;2022-12-18T08:11:22;-4.20;99.90
10883;DHT22;5494;51.796;10.952;2022-12-18T08:13:51;-3.90;99.90
10883;DHT22;5494;51.796;10.952;2022-12-18T08:16:21;-3.60;99.90
10883;DHT22;5494;51.796;10.952;2022-12-18T08:18:51;-3.30;99.90
10883;DHT22;5494;51.796;10.952;2022-12-18T08:21:22;-3.00;99.90
10883;DHT22;5494;51.796;10.952;2022-12-18T08:23:53;-2.60;99.90
10883;DHT22;5494;51.796;10.952;2022-12-18T08:26:25;-2.20;99.90
10883;DHT22;5494;51.796;10.952;2022-12-18T08:28:56;-1.90;99.90
10883;DHT22;5494;51.796;10.952;2022-12-18T08:31:27;-1.40;99.90
10883;DHT22;5494;51.796;10.952;2022-12-18T08:33:56;-1.00;99.90
10883;DHT22;5494;51.796;10.952;2022-12-18T08:36:25;-0.50;99.90
10883;DHT22;5494;51.796;10.952;2022-12-18T08:38:53;-0.10;99.90
10883;DHT22;5494;51.796;10.952;2022-12-18T08:41:23;0.40;99.90
10883;DHT22;5494;51.796;10.952;2022-12-18T08:43:51;0.70;99.90
10883;DHT22;5494;51.796;10.952;2022-12-18T08:46:39;0.90;99.90
10883;DHT22;5494;51.796;10.952;2022-12-18T08:49:10;1.00;99.90
10883;DHT22;5494;51.796;10.952;2022-12-18T08:51:39;1.10;99.90
10883;DHT22;5494;51.796;10.952;2022-12-18T08:54:08;1.30;99.90
10883;DHT22;5494;51.796;10.952;2022-12-18T08:56:40;1.60;99.90
10883;DHT22;5494;51.796;10.952;2022-12-18T08:59:08;1.80;99.90
10883;DHT22;5494;51.796;10.952;2022-12-18T09:01:45;2.10;99.90
10883;DHT22;5494;51.796;10.952;2022-12-18T09:04:15;2.20;99.90
10883;DHT22;5494;51.796;10.952;2022-12-18T09:06:43;2.30;99.90
10883;DHT22;5494;51.796;10.952;2022-12-18T09:09:12;2.40;99.90
10883;DHT22;5494;51.796;10.952;2022-12-18T09:11:41;2.20;99.90
10883;DHT22;5494;51.796;10.952;2022-12-18T09:14:10;2.10;99.90
10883;DHT22;5494;51.796;10.952;2022-12-18T09:16:38;2.10;99.90
10883;DHT22;5494;51.796;10.952;2022-12-18T09:19:06;2.10;99.90
10883;DHT22;5494;51.796;10.952;2022-12-18T09:21:35;2.30;99.90
10883;DHT22;5494;51.796;10.952;2022-12-18T09:24:04;2.60;99.90
10883;DHT22;5494;51.796;10.952;2022-12-18T09:26:35;2.70;99.90
10883;DHT22;5494;51.796;10.952;2022-12-18T09:29:05;2.80;99.90
10883;DHT22;5494;51.796;10.952;2022-12-18T09:31:34;2.70;99.90
10883;DHT22;5494;51.796;10.952;2022-12-18T09:34:06;2.70;99.90
10883;DHT22;5494;51.796;10.952;2022-12-18T09:36:34;2.70;99.90
10883;DHT22;5494;51.796;10.952;2022-12-18T09:39:03;2.70;99.90
10883;DHT22;5494;51.796;10.952;2022-12-18T09:41:45;2.60;99.90
10883;DHT22;5494;51.796;10.952;2022-12-18T09:44:27;2.40;99.90
10883;DHT22;5494;51.796;10.952;2022-12-18T09:47:07;2.40;99.90
10883;DHT22;5494;51.796;10.952;2022-12-18T09:49:42;2.20;99.90
10883;DHT22;5494;51.796;10.952;2022-12-18T09:52:17;2.30;99.90
10883;DHT22;5494;51.796;10.952;2022-12-18T09:54:55;2.30;99.90
10883;DHT22;5494;51.796;10.952;2022-12-18T09:57:30;2.30;99.90
10883;DHT22;5494;51.796;10.952;2022-12-18T10:00:09;2.30;99.90
10883;DHT22;5494;51.796;10.952;2022-12-18T10:02:45;2.30;99.90
10883;DHT22;5494;51.796;10.952;2022-12-18T10:05:16;2.50;99.90
10883;DHT22;5494;51.796;10.952;2022-12-18T10:07:55;2.60;99.90
10883;DHT22;5494;51.796;10.952;2022-12-18T10:10:37;2.60;99.90
10883;DHT22;5494;51.796;10.952;2022-12-18T10:13:19;2.50;99.90
10883;DHT22;5494;51.796;10.952;2022-12-18T10:16:03;2.60;99.90
10883;DHT22;5494;51.796;10.952;2022-12-18T10:18:56;2.50;99.90
10883;DHT22;5494;51.796;10.952;2022-12-18T10:21:41;2.50;99.90
10883;DHT22;5494;51.796;10.952;2022-12-18T10:24:21;2.70;99.90
10883;DHT22;5494;51.796;10.952;2022-12-18T10:27:11;2.80;99.90
10883;DHT22;5494;51.796;10.952;2022-12-18T10:29:42;2.80;99.90
10883;DHT22;5494;51.796;10.952;2022-12-18T10:32:18;2.60;99.90
10883;DHT22;5494;51.796;10.952;2022-12-18T10:34:50;2.50;99.90
10883;DHT22;5494;51.796;10.952;2022-12-18T10:37:28;2.40;99.90
10883;DHT22;5494;51.796;10.952;2022-12-18T10:40:10;2.50;99.90
10883;DHT22;5494;51.796;10.952;2022-12-18T10:43:03;2.70;99.90
10883;DHT22;5494;51.796;10.952;2022-12-18T10:45:32;2.70;99.90
10883;DHT22;5494;51.796;10.952;2022-12-18T10:48:01;2.50;99.90
10883;DHT22;5494;51.796;10.952;2022-12-18T10:50:34;2.40;99.90
10883;DHT22;5494;51.796;10.952;2022-12-18T10:53:26;2.40;99.90
10883;DHT22;5494;51.796;10.952;2022-12-18T10:55:58;2.40;99.90
10883;DHT22;5494;51.796;10.952;2022-12-18T10:58:30;2.40;99.90
10883;DHT22;5494;51.796;10.952;2022-12-18T11:01:05;2.40;99.90
10883;DHT22;5494;51.796;10.952;2022-12-18T11:03:39;2.60;99.90
10883;DHT22;5494;51.796;10.952;2022-12-18T11:06:10;2.70;99.90
10883;DHT22;5494;51.796;10.952;2022-12-18T11:08:41;2.70;99.90
10883;DHT22;5494;51.796;10.952;2022-12-18T11:11:18;2.50;99.90
10883;DHT22;5494;51.796;10.952;2022-12-18T11:13:58;2.40;99.90
10883;DHT22;5494;51.796;10.952;2022-12-18T11:16:33;2.10;99.90
10883;DHT22;5494;51.796;10.952;2022-12-18T11:19:33;2.20;99.90
10883;DHT22;5494;51.796;10.952;2022-12-18T11:22:20;2.20;99.90
10883;DHT22;5494;51.796;10.952;2022-12-18T11:24:54;2.10;99.90
10883;DHT22;5494;51.796;10.952;2022-12-18T11:27:48;2.10;99.90
10883;DHT22;5494;51.796;10.952;2022-12-18T11:30:22;2.10;99.90
10883;DHT22;5494;51.796;10.952;2022-12-18T11:32:55;2.10;99.90
10883;DHT22;5494;51.796;10.952;2022-12-18T11:35:37;2.20;99.90
10883;DHT22;5494;51.796;10.952;2022-12-18T11:38:20;2.20;99.90
10883;DHT22;5494;51.796;10.952;2022-12-18T11:40:55;2.20;99.90
10883;DHT22;5494;51.796;10.952;2022-12-18T11:43:29;2.20;99.90
10883;DHT22;5494;51.796;10.952;2022-12-18T11:46:06;2.10;99.90
10883;DHT22;5494;51.796;10.952;2022-12-18T11:48:48;2.10;99.90
10883;DHT22;5494;51.796;10.952;2022-12-18T11:51:30;2.10;99.90
10883;DHT22;5494;51.796;10.952;2022-12-18T11:54:10;2.00;99.90
10883;DHT22;5494;51.796;10.952;2022-12-18T11:56:44;2.00;99.90
10883;DHT22;5494;51.796;10.952;2022-12-18T11:59:26;2.10;99.90
10883;DHT22;5494;51.796;10.952;2022-12-18T12:02:16;2.30;99.90
10883;DHT22;5494;51.796;10.952;2022-12-18T12:05:12;2.30;99.90
10883;DHT22;5494;51.796;10.952;2022-12-18T12:07:54;2.30;99.90
10883;DHT22;5494;51.796;10.952;2022-12-18T12:10:36;2.40;99.90
10883;DHT22;5494;51.796;10.952;2022-12-18T12:13:20;2.30;99.90
10883;DHT22;5494;51.796;10.952;2022-12-18T12:16:08;2.30;99.90
10883;DHT22;5494;51.796;10.952;2022-12-18T12:18:58;2.40;99.90
10883;DHT22;5494;51.796;10.952;2022-12-18T12:21:39;2.30;99.90
10883;DHT22;5494;51.796;10.952;2022-12-18T12:24:25;2.00;99.90
10883;DHT22;5494;51.796;10.952;2022-12-18T12:27:10;1.90;99.90
10883;DHT22;5494;51.796;10.952;2022-12-18T12:29:59;1.80;99.90
10883;DHT22;5494;51.796;10.952;2022-12-18T12:32:45;1.90;99.90
10883;DHT22;5494;51.796;10.952;2022-12-18T12:35:34;1.90;99.90
10883;DHT22;5494;51.796;10.952;2022-12-18T12:38:15;1.80;99.90
10883;DHT22;5494;51.796;10.952;2022-12-18T12:40:53;1.70;99.90
10883;DHT22;5494;51.796;10.952;2022-12-18T12:43:35;1.60;99.90
10883;DHT22;5494;51.796;10.952;2022-12-18T12:46:18;1.60;99.90
10883;DHT22;5494;51.796;10.952;2022-12-18T12:48:53;1.50;99.90
10883;DHT22;5494;51.796;10.952;2022-12-18T12:51:26;1.50;99.90
10883;DHT22;5494;51.796;10.952;2022-12-18T12:53:57;1.40;99.90
10883;DHT22;5494;51.796;10.952;2022-12-18T12:56:36;1.40;99.90
10883;DHT22;5494;51.796;10.952;2022-12-18T12:59:15;1.20;99.90
10883;DHT22;5494;51.796;10.952;2022-12-18T13:01:54;1.00;99.90
10883;DHT22;5494;51.796;10.952;2022-12-18T13:04:33;0.90;99.90
10883;DHT22;5494;51.796;10.952;2022-12-18T13:07:14;0.70;99.90
10883;DHT22;5494;51.796;10.952;2022-12-18T13:13:06;0.60;99.90
10883;DHT22;5494;51.796;10.952;2022-12-18T13:15:38;0.70;99.90
10883;DHT22;5494;51.796;10.952;2022-12-18T13:18:17;0.60;99.90
10883;DHT22;5494;51.796;10.952;2022-12-18T13:20:49;0.60;99.90
10883;DHT22;5494;51.796;10.952;2022-12-18T13:23:32;0.60;99.90
10883;DHT22;5494;51.796;10.952;2022-12-18T13:26:30;0.60;99.90
10883;DHT22;5494;51.796;10.952;2022-12-18T13:29:02;0.60;99.90
10883;DHT22;5494;51.796;10.952;2022-12-18T13:31:58;0.60;99.90
10883;DHT22;5494;51.796;10.952;2022-12-18T13:34:29;0.60;99.90
10883;DHT22;5494;51.796;10.952;2022-12-18T13:43:28;0.50;99.90
10883;DHT22;5494;51.796;10.952;2022-12-18T13:46:03;0.50;99.90
10883;DHT22;5494;51.796;10.952;2022-12-18T13:48:37;0.50;99.90
10883;DHT22;5494;51.796;10.952;2022-12-18T13:51:09;0.40;99.90
10883;DHT22;5494;51.796;10.952;2022-12-18T13:53:48;0.40;99.90
10883;DHT22;5494;51.796;10.952;2022-12-18T13:56:21;0.50;99.90
10883;DHT22;5494;51.796;10.952;2022-12-18T13:59:13;0.50;99.90
10883;DHT22;5494;51.796;10.952;2022-12-18T14:01:47;0.40;99.90
10883;DHT22;5494;51.796;10.952;2022-12-18T14:04:25;0.40;99.90
10883;DHT22;5494;51.796;10.952;2022-12-18T14:06:57;0.40;99.90
10883;DHT22;5494;51.796;10.952;2022-12-18T14:09:31;0.40;99.90
10883;DHT22;5494;51.796;10.952;2022-12-18T14:12:05;0.40;99.90
10883;DHT22;5494;51.796;10.952;2022-12-18T14:14:53;0.30;99.90
10883;DHT22;5494;51.796;10.952;2022-12-18T14:17:23;0.20;99.90
10883;DHT22;5494;51.796;10.952;2022-12-18T14:19:52;0.20;99.90
10883;DHT22;5494;51.796;10.952;2022-12-18T14:22:23;0.10;99.90
10883;DHT22;5494;51.796;10.952;2022-12-18T14:25:13;0.20;99.90
10883;DHT22;5494;51.796;10.952;2022-12-18T14:27:46;0.20;99.90
10883;DHT22;5494;51.796;10.952;2022-12-18T14:30:30;0.20;99.90
10883;DHT22;5494;51.796;10.952;2022-12-18T14:33:04;0.20;99.90
10883;DHT22;5494;51.796;10.952;2022-12-18T14:35:35;0.20;99.90
10883;DHT22;5494;51.796;10.952;2022-12-18T14:38:22;0.30;99.90
10883;DHT22;5494;51.796;10.952;2022-12-18T14:40:53;0.20;99.90
10883;DHT22;5494;51.796;10.952;2022-12-18T14:43:23;0.20;99.90
10883;DHT22;5494;51.796;10.952;2022-12-18T14:45:51;0.20;99.90
10883;DHT22;5494;51.796;10.952;2022-12-18T14:48:30;0.20;99.90
10883;DHT22;5494;51.796;10.952;2022-12-18T14:51:06;0.20;99.90
10883;DHT22;5494;51.796;10.952;2022-12-18T14:53:44;0.10;99.90
10883;DHT22;5494;51.796;10.952;2022-12-18T14:56:22;0.10;99.90
10883;DHT22;5494;51.796;10.952;2022-12-18T14:58:54;0.00;99.90
10883;DHT22;5494;51.796;10.952;2022-12-18T15:01:27;0.00;99.90
10883;DHT22;5494;51.796;10.952;2022-12-18T15:03:59;0.00;99.90
10883;DHT22;5494;51.796;10.952;2022-12-18T15:06:31;0.00;99.90
10883;DHT22;5494;51.796;10.952;2022-12-18T15:09:03;0.10;99.90
10883;DHT22;5494;51.796;10.952;2022-12-18T15:11:45;0.10;99.90
10883;DHT22;5494;51.796;10.952;2022-12-18T15:14:30;0.10;99.90
10883;DHT22;5494;51.796;10.952;2022-12-18T15:17:12;0.20;99.90
10883;DHT22;5494;51.796;10.952;2022-12-18T15:19:46;0.10;99.90
10883;DHT22;5494;51.796;10.952;2022-12-18T15:22:25;0.10;99.90
10883;DHT22;5494;51.796;10.952;2022-12-18T15:24:56;0.10;99.90
10883;DHT22;5494;51.796;10.952;2022-12-18T15:27:29;0.20;99.90
10883;DHT22;5494;51.796;10.952;2022-12-18T15:30:17;0.20;99.90
10883;DHT22;5494;51.796;10.952;2022-12-18T15:32:48;0.30;99.90
10883;DHT22;5494;51.796;10.952;2022-12-18T15:35:20;0.30;99.90
10883;DHT22;5494;51.796;10.952;2022-12-18T15:37:50;0.30;99.90
10883;DHT22;5494;51.796;10.952;2022-12-18T15:40:21;0.20;99.90
10883;DHT22;5494;51.796;10.952;2022-12-18T15:42:53;0.10;99.90
10883;DHT22;5494;51.796;10.952;2022-12-18T15:45:40;0.00;99.90
10883;DHT22;5494;51.796;10.952;2022-12-18T15:48:18;0.00;99.90
10883;DHT22;5494;51.796;10.952;2022-12-18T15:50:50;0.00;99.90
10883;DHT22;5494;51.796;10.952;2022-12-18T15:53:22;0.00;99.90
10883;DHT22;5494;51.796;10.952;2022-12-18T15:55:51;0.00;99.90
10883;DHT22;5494;51.796;10.952;2022-12-18T15:58:38;-0.10;99.90
10883;DHT22;5494;51.796;10.952;2022-12-18T16:01:08;-0.10;99.90
10883;DHT22;5494;51.796;10.952;2022-12-18T16:03:37;-0.10;99.90
10883;DHT22;5494;51.796;10.952;2022-12-18T16:06:09;-0.10;99.90
10883;DHT22;5494;51.796;10.952;2022-12-18T16:08:37;-0.10;99.90
10883;DHT22;5494;51.796;10.952;2022-12-18T16:11:19;-0.20;99.90
10883;DHT22;5494;51.796;10.952;2022-12-18T16:14:17;-0.10;99.90
10883;DHT22;5494;51.796;10.952;2022-12-18T16:16:49;-0.10;99.90
10883;DHT22;5494;51.796;10.952;2022-12-18T16:19:19;-0.10;99.90
10883;DHT22;5494;51.796;10.952;2022-12-18T16:21:50;-0.10;99.90
10883;DHT22;5494;51.796;10.952;2022-12-18T16:24:21;-0.10;99.90
10883;DHT22;5494;51.796;10.952;2022-12-18T16:26:52;-0.10;99.90
10883;DHT22;5494;51.796;10.952;2022-12-18T16:29:21;-0.10;99.90